GLD1154 SLVR-SPJC
Flight info
| Callsign | GLD1154 |
|---|---|
| Flight time | 2h 18m |
| Altitude | 34000 |
| Route | DIBAS UM415 ASOXI |
| Aircraft | B738/M-SDFGIRY/S |
Departure
| Time | 2026-04-27 00:13 |
|---|---|
| Airport | Viru Viru International Airport (SLVR) |
Arrival
| Time | 2026-04-27 02:32 |
|---|---|
| Airport | Jorge Chávez International Airport (SPJC) |
| Time | Latitude | Longitude | Altitude | Speed | Heading |
|---|---|---|---|---|---|
| 2026-04-26 23:53 | -17.64631 | -63.13878 | 1227 ft | 0 kts | 48° |
| 2026-04-27 00:05 | -17.64637 | -63.13885 | 1219 ft | 4 kts | 47° |
| 2026-04-27 00:05 | -17.64656 | -63.13904 | 1205 ft | 4 kts | 39° |
| 2026-04-27 00:05 | -17.64678 | -63.13919 | 1227 ft | 4 kts | 11° |
| 2026-04-27 00:05 | -17.64695 | -63.13918 | 1227 ft | 0 kts | 330° |
| 2026-04-27 00:08 | -17.64686 | -63.13924 | 1227 ft | 7 kts | 330° |
| 2026-04-27 00:08 | -17.64606 | -63.13981 | 1227 ft | 21 kts | 327° |
| 2026-04-27 00:08 | -17.64475 | -63.13988 | 1227 ft | 22 kts | 51° |
| 2026-04-27 00:08 | -17.64385 | -63.13864 | 1227 ft | 21 kts | 17° |
| 2026-04-27 00:09 | -17.64255 | -63.13927 | 1226 ft | 21 kts | 328° |
| 2026-04-27 00:09 | -17.64134 | -63.14005 | 1226 ft | 20 kts | 328° |
| 2026-04-27 00:09 | -17.64016 | -63.14080 | 1226 ft | 19 kts | 331° |
| 2026-04-27 00:09 | -17.63919 | -63.14020 | 1224 ft | 14 kts | 58° |
| 2026-04-27 00:10 | -17.63861 | -63.13954 | 1223 ft | 11 kts | 360° |
| 2026-04-27 00:10 | -17.63794 | -63.13997 | 1223 ft | 12 kts | 327° |
| 2026-04-27 00:10 | -17.63698 | -63.14063 | 1224 ft | 18 kts | 327° |
| 2026-04-27 00:10 | -17.63595 | -63.14132 | 1225 ft | 17 kts | 327° |
| 2026-04-27 00:11 | -17.63497 | -63.14199 | 1225 ft | 17 kts | 327° |
| 2026-04-27 00:11 | -17.63402 | -63.14263 | 1225 ft | 16 kts | 327° |
| 2026-04-27 00:11 | -17.63310 | -63.14325 | 1225 ft | 15 kts | 327° |
| 2026-04-27 00:11 | -17.63231 | -63.14393 | 1223 ft | 15 kts | 294° |
| 2026-04-27 00:12 | -17.63173 | -63.14436 | 1223 ft | 9 kts | 50° |
| 2026-04-27 00:12 | -17.63182 | -63.14407 | 1223 ft | 4 kts | 142° |
| 2026-04-27 00:12 | -17.63186 | -63.14404 | 1223 ft | 0 kts | 144° |
| 2026-04-27 00:13 | -17.63266 | -63.14346 | 1224 ft | 48 kts | 148° |
| 2026-04-27 00:13 | -17.63775 | -63.14005 | 1223 ft | 124 kts | 147° |
| 2026-04-27 00:13 | -17.64677 | -63.13416 | 1359 ft | 174 kts | 150° |
| 2026-04-27 00:13 | -17.65736 | -63.12762 | 2219 ft | 178 kts | 150° |
| 2026-04-27 00:14 | -17.66768 | -63.11958 | 2875 ft | 200 kts | 126° |
| 2026-04-27 00:14 | -17.67262 | -63.10520 | 3141 ft | 223 kts | 89° |
| 2026-04-27 00:14 | -17.66897 | -63.08895 | 3317 ft | 239 kts | 56° |
| 2026-04-27 00:14 | -17.65709 | -63.07678 | 3769 ft | 245 kts | 25° |
| 2026-04-27 00:15 | -17.64017 | -63.07301 | 4206 ft | 256 kts | 351° |
| 2026-04-27 00:15 | -17.62389 | -63.08004 | 4943 ft | 257 kts | 318° |
| 2026-04-27 00:15 | -17.61466 | -63.09588 | 5742 ft | 262 kts | 284° |
| 2026-04-27 00:15 | -17.61557 | -63.11504 | 6517 ft | 270 kts | 258° |
| 2026-04-27 00:16 | -17.62027 | -63.13401 | 7240 ft | 273 kts | 262° |
| 2026-04-27 00:16 | -17.61979 | -63.15388 | 7928 ft | 270 kts | 290° |
| 2026-04-27 00:16 | -17.61121 | -63.17121 | 8724 ft | 269 kts | 304° |
| 2026-04-27 00:16 | -17.60067 | -63.18758 | 9438 ft | 273 kts | 306° |
| 2026-04-27 00:17 | -17.58980 | -63.20402 | 10143 ft | 276 kts | 306° |
| 2026-04-27 00:17 | -17.57845 | -63.22113 | 10400 ft | 298 kts | 306° |
| 2026-04-27 00:17 | -17.56638 | -63.23935 | 10547 ft | 319 kts | 306° |
| 2026-04-27 00:17 | -17.55341 | -63.25902 | 10813 ft | 335 kts | 305° |
| 2026-04-27 00:18 | -17.54002 | -63.27938 | 11293 ft | 342 kts | 305° |
| 2026-04-27 00:18 | -17.52643 | -63.30008 | 11880 ft | 346 kts | 305° |
| 2026-04-27 00:18 | -17.51270 | -63.32103 | 12433 ft | 351 kts | 304° |
| 2026-04-27 00:18 | -17.49883 | -63.34220 | 13019 ft | 354 kts | 304° |
| 2026-04-27 00:19 | -17.48479 | -63.36363 | 13564 ft | 359 kts | 304° |
| 2026-04-27 00:19 | -17.47058 | -63.38530 | 14075 ft | 363 kts | 304° |
| 2026-04-27 00:19 | -17.45622 | -63.40720 | 14546 ft | 366 kts | 304° |
| 2026-04-27 00:19 | -17.44174 | -63.42928 | 15061 ft | 369 kts | 304° |
| 2026-04-27 00:20 | -17.42710 | -63.45160 | 15525 ft | 373 kts | 304° |
| 2026-04-27 00:20 | -17.41233 | -63.47411 | 15981 ft | 377 kts | 304° |
| 2026-04-27 00:20 | -17.39741 | -63.49683 | 16492 ft | 380 kts | 304° |
| 2026-04-27 00:20 | -17.38241 | -63.51968 | 16992 ft | 382 kts | 304° |
| 2026-04-27 00:21 | -17.36727 | -63.54272 | 17470 ft | 385 kts | 304° |
| 2026-04-27 00:21 | -17.35224 | -63.56567 | 17922 ft | 388 kts | 302° |
| 2026-04-27 00:21 | -17.34091 | -63.59124 | 18317 ft | 391 kts | 283° |
| 2026-04-27 00:21 | -17.33644 | -63.61925 | 18776 ft | 392 kts | 277° |
| 2026-04-27 00:22 | -17.33283 | -63.64765 | 19181 ft | 395 kts | 277° |
| 2026-04-27 00:22 | -17.32932 | -63.67620 | 19566 ft | 398 kts | 277° |
| 2026-04-27 00:22 | -17.32574 | -63.70503 | 19972 ft | 400 kts | 277° |
| 2026-04-27 00:22 | -17.32206 | -63.73394 | 20392 ft | 402 kts | 277° |
| 2026-04-27 00:23 | -17.31827 | -63.76310 | 20759 ft | 406 kts | 278° |
| 2026-04-27 00:23 | -17.31439 | -63.79252 | 21124 ft | 409 kts | 278° |
| 2026-04-27 00:23 | -17.31046 | -63.82209 | 21504 ft | 412 kts | 278° |
| 2026-04-27 00:23 | -17.30649 | -63.85173 | 21923 ft | 413 kts | 278° |
| 2026-04-27 00:24 | -17.30247 | -63.88163 | 22337 ft | 415 kts | 278° |
| 2026-04-27 00:24 | -17.29841 | -63.91177 | 22664 ft | 419 kts | 278° |
| 2026-04-27 00:24 | -17.29431 | -63.94221 | 22957 ft | 423 kts | 278° |
| 2026-04-27 00:24 | -17.29018 | -63.97282 | 23220 ft | 428 kts | 278° |
| 2026-04-27 00:25 | -17.28630 | -64.00160 | 23548 ft | 431 kts | 278° |
| 2026-04-27 00:25 | -17.28216 | -64.03226 | 23870 ft | 432 kts | 278° |
| 2026-04-27 00:25 | -17.27795 | -64.06339 | 24192 ft | 433 kts | 278° |
| 2026-04-27 00:25 | -17.27372 | -64.09469 | 24520 ft | 434 kts | 278° |
| 2026-04-27 00:26 | -17.26947 | -64.12601 | 24825 ft | 436 kts | 278° |
| 2026-04-27 00:26 | -17.26525 | -64.15716 | 25103 ft | 438 kts | 278° |
| 2026-04-27 00:26 | -17.26095 | -64.18882 | 25391 ft | 440 kts | 278° |
| 2026-04-27 00:26 | -17.25663 | -64.22053 | 25692 ft | 442 kts | 278° |
| 2026-04-27 00:27 | -17.25228 | -64.25250 | 25980 ft | 444 kts | 278° |
| 2026-04-27 00:27 | -17.24792 | -64.28451 | 26242 ft | 446 kts | 278° |
| 2026-04-27 00:27 | -17.24351 | -64.31676 | 26512 ft | 448 kts | 278° |
| 2026-04-27 00:27 | -17.23910 | -64.34905 | 26792 ft | 449 kts | 278° |
| 2026-04-27 00:28 | -17.23467 | -64.38147 | 27095 ft | 450 kts | 278° |
| 2026-04-27 00:28 | -17.23022 | -64.41397 | 27351 ft | 452 kts | 278° |
| 2026-04-27 00:28 | -17.22575 | -64.44654 | 27591 ft | 454 kts | 278° |
| 2026-04-27 00:28 | -17.22115 | -64.47927 | 27817 ft | 456 kts | 280° |
| 2026-04-27 00:29 | -17.21374 | -64.51155 | 28080 ft | 457 kts | 287° |
| 2026-04-27 00:29 | -17.20415 | -64.54338 | 28368 ft | 458 kts | 289° |
| 2026-04-27 00:29 | -17.19389 | -64.57491 | 28590 ft | 460 kts | 289° |
| 2026-04-27 00:29 | -17.18357 | -64.60627 | 28785 ft | 462 kts | 289° |
| 2026-04-27 00:30 | -17.17310 | -64.63857 | 29057 ft | 463 kts | 289° |
| 2026-04-27 00:30 | -17.16313 | -64.67000 | 29426 ft | 461 kts | 288° |
| 2026-04-27 00:30 | -17.15324 | -64.70177 | 29849 ft | 458 kts | 288° |
| 2026-04-27 00:30 | -17.14348 | -64.73346 | 30176 ft | 457 kts | 288° |
| 2026-04-27 00:31 | -17.13381 | -64.76507 | 30494 ft | 456 kts | 288° |
| 2026-04-27 00:31 | -17.12420 | -64.79655 | 30807 ft | 454 kts | 288° |
| 2026-04-27 00:31 | -17.11461 | -64.82796 | 31142 ft | 452 kts | 288° |
| 2026-04-27 00:31 | -17.10503 | -64.85929 | 31411 ft | 452 kts | 288° |
| 2026-04-27 00:32 | -17.09869 | -64.88001 | 31624 ft | 451 kts | 288° |
| 2026-04-27 00:32 | -17.08914 | -64.91116 | 31970 ft | 449 kts | 288° |
| 2026-04-27 00:32 | -17.07962 | -64.94221 | 32310 ft | 447 kts | 288° |
| 2026-04-27 00:32 | -17.07013 | -64.97312 | 32648 ft | 446 kts | 288° |
| 2026-04-27 00:33 | -17.06123 | -65.00211 | 32951 ft | 444 kts | 288° |
| 2026-04-27 00:33 | -17.05180 | -65.03278 | 33289 ft | 442 kts | 288° |
| 2026-04-27 00:33 | -17.04239 | -65.06339 | 33623 ft | 440 kts | 288° |
| 2026-04-27 00:33 | -17.03303 | -65.09380 | 33947 ft | 439 kts | 288° |
| 2026-04-27 00:34 | -17.01420 | -65.15492 | 34028 ft | 443 kts | 288° |
| 2026-04-27 00:34 | -16.99555 | -65.21543 | 34015 ft | 439 kts | 288° |
| 2026-04-27 00:35 | -16.97688 | -65.27590 | 34045 ft | 436 kts | 288° |
| 2026-04-27 00:35 | -16.95838 | -65.33576 | 34042 ft | 436 kts | 288° |
| 2026-04-27 00:36 | -16.93976 | -65.39597 | 34071 ft | 436 kts | 288° |
| 2026-04-27 00:36 | -16.92110 | -65.45620 | 34073 ft | 436 kts | 288° |
| 2026-04-27 00:37 | -16.90238 | -65.51658 | 34100 ft | 437 kts | 288° |
| 2026-04-27 00:37 | -16.88362 | -65.57701 | 34069 ft | 438 kts | 288° |
| 2026-04-27 00:38 | -16.86480 | -65.63758 | 34098 ft | 439 kts | 289° |
| 2026-04-27 00:38 | -16.84594 | -65.69822 | 34095 ft | 440 kts | 289° |
| 2026-04-27 00:39 | -16.82705 | -65.75902 | 34141 ft | 440 kts | 288° |
| 2026-04-27 00:39 | -16.80858 | -65.82004 | 34142 ft | 441 kts | 288° |
| 2026-04-27 00:40 | -16.79030 | -65.88082 | 34155 ft | 441 kts | 288° |
| 2026-04-27 00:40 | -16.77184 | -65.94195 | 34150 ft | 442 kts | 288° |
| 2026-04-27 00:41 | -16.75380 | -66.00150 | 34187 ft | 442 kts | 288° |
| 2026-04-27 00:41 | -16.73529 | -66.06249 | 34188 ft | 442 kts | 288° |
| 2026-04-27 00:42 | -16.71673 | -66.12359 | 34221 ft | 442 kts | 288° |
| 2026-04-27 00:42 | -16.69818 | -66.18461 | 34187 ft | 441 kts | 288° |
| 2026-04-27 00:43 | -16.67967 | -66.24544 | 34182 ft | 440 kts | 288° |
| 2026-04-27 00:43 | -16.66114 | -66.30627 | 34216 ft | 440 kts | 288° |
| 2026-04-27 00:44 | -16.64259 | -66.36707 | 34211 ft | 440 kts | 288° |
| 2026-04-27 00:44 | -16.62412 | -66.42789 | 34228 ft | 440 kts | 288° |
| 2026-04-27 00:45 | -16.60565 | -66.48875 | 34179 ft | 440 kts | 288° |
| 2026-04-27 00:45 | -16.58716 | -66.54963 | 34196 ft | 441 kts | 288° |
| 2026-04-27 00:46 | -16.56862 | -66.61060 | 34195 ft | 441 kts | 288° |
| 2026-04-27 00:46 | -16.55017 | -66.67115 | 34206 ft | 441 kts | 288° |
| 2026-04-27 00:47 | -16.53156 | -66.73218 | 34206 ft | 442 kts | 288° |
| 2026-04-27 00:47 | -16.51288 | -66.79339 | 34169 ft | 443 kts | 288° |
| 2026-04-27 00:48 | -16.49418 | -66.85456 | 34172 ft | 443 kts | 288° |
| 2026-04-27 00:48 | -16.47546 | -66.91575 | 34164 ft | 443 kts | 288° |
| 2026-04-27 00:49 | -16.45672 | -66.97690 | 34172 ft | 443 kts | 288° |
| 2026-04-27 00:49 | -16.43848 | -67.03640 | 34157 ft | 442 kts | 288° |
| 2026-04-27 00:50 | -16.41049 | -67.12752 | 34128 ft | 442 kts | 288° |
| 2026-04-27 00:51 | -16.39178 | -67.18837 | 34124 ft | 441 kts | 288° |
| 2026-04-27 00:51 | -16.37296 | -67.24950 | 34124 ft | 441 kts | 288° |
| 2026-04-27 00:52 | -16.35424 | -67.31022 | 34113 ft | 440 kts | 288° |
| 2026-04-27 00:52 | -16.33567 | -67.37041 | 34139 ft | 439 kts | 288° |
| 2026-04-27 00:53 | -16.31696 | -67.43097 | 34109 ft | 439 kts | 288° |
| 2026-04-27 00:53 | -16.29822 | -67.49157 | 34106 ft | 439 kts | 288° |
| 2026-04-27 00:54 | -16.27951 | -67.55203 | 34121 ft | 439 kts | 288° |
| 2026-04-27 00:54 | -16.26076 | -67.61255 | 34116 ft | 439 kts | 288° |
| 2026-04-27 00:55 | -16.24200 | -67.67300 | 34113 ft | 439 kts | 288° |
| 2026-04-27 00:55 | -16.22342 | -67.73315 | 34111 ft | 439 kts | 288° |
| 2026-04-27 00:56 | -16.20500 | -67.79368 | 34107 ft | 439 kts | 288° |
| 2026-04-27 00:56 | -16.18644 | -67.85464 | 34134 ft | 439 kts | 288° |
| 2026-04-27 00:57 | -16.16810 | -67.91475 | 34126 ft | 439 kts | 288° |
| 2026-04-27 00:57 | -16.14949 | -67.97562 | 34142 ft | 439 kts | 288° |
| 2026-04-27 00:58 | -16.13155 | -68.03423 | 34147 ft | 439 kts | 288° |
| 2026-04-27 00:58 | -16.11312 | -68.09437 | 34129 ft | 439 kts | 288° |
| 2026-04-27 00:59 | -16.09453 | -68.15501 | 34130 ft | 439 kts | 288° |
| 2026-04-27 00:59 | -16.07594 | -68.21554 | 34154 ft | 439 kts | 288° |
| 2026-04-27 01:00 | -16.05739 | -68.27612 | 34155 ft | 440 kts | 288° |
| 2026-04-27 01:00 | -16.03888 | -68.33664 | 34163 ft | 439 kts | 288° |
| 2026-04-27 01:01 | -16.02033 | -68.39721 | 34176 ft | 439 kts | 288° |
| 2026-04-27 01:01 | -16.00177 | -68.45774 | 34172 ft | 440 kts | 288° |
| 2026-04-27 01:02 | -15.98342 | -68.51798 | 34160 ft | 440 kts | 287° |
| 2026-04-27 01:02 | -15.96511 | -68.57818 | 34172 ft | 440 kts | 288° |
| 2026-04-27 01:03 | -15.94667 | -68.63874 | 34160 ft | 439 kts | 288° |
| 2026-04-27 01:03 | -15.92819 | -68.69931 | 34169 ft | 439 kts | 288° |
| 2026-04-27 01:04 | -15.90971 | -68.75980 | 34148 ft | 439 kts | 288° |
| 2026-04-27 01:04 | -15.89127 | -68.82012 | 34153 ft | 438 kts | 288° |
| 2026-04-27 01:05 | -15.87276 | -68.88058 | 34148 ft | 438 kts | 288° |
| 2026-04-27 01:05 | -15.85428 | -68.94087 | 34149 ft | 438 kts | 288° |
| 2026-04-27 01:06 | -15.83595 | -69.00060 | 34145 ft | 438 kts | 288° |
| 2026-04-27 01:06 | -15.81794 | -69.05926 | 34145 ft | 438 kts | 288° |
| 2026-04-27 01:07 | -15.79945 | -69.11940 | 34150 ft | 437 kts | 288° |
| 2026-04-27 01:07 | -15.78092 | -69.17961 | 34145 ft | 437 kts | 288° |
| 2026-04-27 01:08 | -15.76238 | -69.23981 | 34149 ft | 437 kts | 288° |
| 2026-04-27 01:08 | -15.74382 | -69.30000 | 34138 ft | 438 kts | 288° |
| 2026-04-27 01:09 | -15.72521 | -69.36029 | 34149 ft | 438 kts | 288° |
| 2026-04-27 01:09 | -15.70643 | -69.42004 | 34144 ft | 438 kts | 289° |
| 2026-04-27 01:10 | -15.68693 | -69.47990 | 34142 ft | 438 kts | 289° |
| 2026-04-27 01:10 | -15.66735 | -69.53984 | 34132 ft | 439 kts | 289° |
| 2026-04-27 01:11 | -15.64779 | -69.59993 | 34132 ft | 439 kts | 289° |
| 2026-04-27 01:11 | -15.62828 | -69.65996 | 34134 ft | 440 kts | 289° |
| 2026-04-27 01:12 | -15.60868 | -69.72021 | 34132 ft | 440 kts | 289° |
| 2026-04-27 01:12 | -15.58910 | -69.78033 | 34139 ft | 440 kts | 289° |
| 2026-04-27 01:13 | -15.56947 | -69.84054 | 34153 ft | 440 kts | 289° |
| 2026-04-27 01:13 | -15.54982 | -69.90076 | 34148 ft | 441 kts | 289° |
| 2026-04-27 01:14 | -15.53014 | -69.96101 | 34160 ft | 441 kts | 289° |
| 2026-04-27 01:14 | -15.51096 | -70.01967 | 34158 ft | 441 kts | 289° |
| 2026-04-27 01:15 | -15.49124 | -70.07993 | 34184 ft | 441 kts | 289° |
| 2026-04-27 01:15 | -15.47149 | -70.14019 | 34182 ft | 441 kts | 289° |
| 2026-04-27 01:15 | -15.46106 | -70.17006 | 34587 ft | 441 kts | 292° |
| 2026-04-27 01:16 | -15.44956 | -70.19958 | 34593 ft | 441 kts | 293° |
| 2026-04-27 01:16 | -15.42558 | -70.25815 | 34564 ft | 441 kts | 293° |
| 2026-04-27 01:17 | -15.40175 | -70.31636 | 34203 ft | 442 kts | 293° |
| 2026-04-27 01:17 | -15.37799 | -70.37513 | 34245 ft | 442 kts | 293° |
| 2026-04-27 01:18 | -15.35830 | -70.42407 | 34240 ft | 442 kts | 293° |
| 2026-04-27 01:18 | -15.33465 | -70.48292 | 34284 ft | 442 kts | 293° |
| 2026-04-27 01:19 | -15.31094 | -70.54182 | 34246 ft | 443 kts | 293° |
| 2026-04-27 01:19 | -15.28721 | -70.60070 | 34246 ft | 443 kts | 293° |
| 2026-04-27 01:20 | -15.26344 | -70.65965 | 34291 ft | 443 kts | 293° |
| 2026-04-27 01:20 | -15.23979 | -70.71823 | 34291 ft | 443 kts | 293° |
| 2026-04-27 01:21 | -15.21600 | -70.77711 | 34320 ft | 443 kts | 293° |
| 2026-04-27 01:21 | -15.19219 | -70.83598 | 34270 ft | 443 kts | 293° |
| 2026-04-27 01:22 | -15.16837 | -70.89485 | 34287 ft | 443 kts | 293° |
| 2026-04-27 01:22 | -15.14456 | -70.95364 | 34293 ft | 443 kts | 293° |
| 2026-04-27 01:23 | -15.12141 | -71.01077 | 34294 ft | 442 kts | 293° |
| 2026-04-27 01:23 | -15.09758 | -71.06945 | 34250 ft | 442 kts | 293° |
| 2026-04-27 01:24 | -15.07379 | -71.12796 | 34254 ft | 441 kts | 293° |
| 2026-04-27 01:24 | -15.05001 | -71.18641 | 34262 ft | 440 kts | 293° |
| 2026-04-27 01:25 | -15.02623 | -71.24485 | 34264 ft | 440 kts | 293° |
| 2026-04-27 01:25 | -15.00261 | -71.30284 | 34269 ft | 440 kts | 293° |
| 2026-04-27 01:26 | -14.97886 | -71.36110 | 34225 ft | 440 kts | 293° |
| 2026-04-27 01:26 | -14.95505 | -71.41946 | 34232 ft | 440 kts | 293° |
| 2026-04-27 01:27 | -14.93126 | -71.47771 | 34232 ft | 440 kts | 293° |
| 2026-04-27 01:27 | -14.90747 | -71.53595 | 34232 ft | 440 kts | 293° |
| 2026-04-27 01:28 | -14.88375 | -71.59394 | 34255 ft | 440 kts | 293° |
| 2026-04-27 01:28 | -14.85990 | -71.65219 | 34216 ft | 440 kts | 293° |
| 2026-04-27 01:29 | -14.83601 | -71.71052 | 34242 ft | 441 kts | 293° |
| 2026-04-27 01:29 | -14.81207 | -71.76893 | 34243 ft | 441 kts | 294° |
| 2026-04-27 01:30 | -14.78809 | -71.82735 | 34245 ft | 442 kts | 294° |
| 2026-04-27 01:30 | -14.76407 | -71.88578 | 34216 ft | 442 kts | 294° |
| 2026-04-27 01:31 | -14.73997 | -71.94435 | 34223 ft | 442 kts | 293° |
| 2026-04-27 01:31 | -14.71646 | -72.00145 | 34230 ft | 442 kts | 293° |
| 2026-04-27 01:32 | -14.69246 | -72.05972 | 34235 ft | 442 kts | 293° |
| 2026-04-27 01:32 | -14.66847 | -72.11792 | 34249 ft | 442 kts | 293° |
| 2026-04-27 01:33 | -14.64433 | -72.17644 | 34198 ft | 443 kts | 293° |
| 2026-04-27 01:33 | -14.62021 | -72.23486 | 34201 ft | 442 kts | 293° |
| 2026-04-27 01:34 | -14.59605 | -72.29331 | 34225 ft | 442 kts | 293° |
| 2026-04-27 01:34 | -14.57188 | -72.35176 | 34225 ft | 442 kts | 293° |
| 2026-04-27 01:35 | -14.54765 | -72.41029 | 34259 ft | 442 kts | 293° |
| 2026-04-27 01:35 | -14.52362 | -72.46831 | 34221 ft | 442 kts | 293° |
| 2026-04-27 01:36 | -14.49943 | -72.52666 | 34225 ft | 442 kts | 293° |
| 2026-04-27 01:36 | -14.47524 | -72.58494 | 34261 ft | 442 kts | 293° |
| 2026-04-27 01:37 | -14.45098 | -72.64337 | 34251 ft | 443 kts | 293° |
| 2026-04-27 01:37 | -14.42671 | -72.70176 | 34282 ft | 443 kts | 294° |
| 2026-04-27 01:38 | -14.40234 | -72.76034 | 34272 ft | 445 kts | 294° |
| 2026-04-27 01:38 | -14.37788 | -72.81910 | 34275 ft | 446 kts | 293° |
| 2026-04-27 01:39 | -14.35350 | -72.87764 | 34282 ft | 447 kts | 294° |
| 2026-04-27 01:39 | -14.32891 | -72.93662 | 34274 ft | 448 kts | 294° |
| 2026-04-27 01:40 | -14.30427 | -72.99566 | 34233 ft | 449 kts | 294° |
| 2026-04-27 01:40 | -14.28022 | -73.05324 | 34232 ft | 449 kts | 294° |
| 2026-04-27 01:41 | -14.25556 | -73.11224 | 34228 ft | 448 kts | 294° |
| 2026-04-27 01:41 | -14.23088 | -73.17127 | 34219 ft | 447 kts | 294° |
| 2026-04-27 01:42 | -14.20628 | -73.23001 | 34217 ft | 446 kts | 294° |
| 2026-04-27 01:42 | -14.18175 | -73.28859 | 34199 ft | 444 kts | 294° |
| 2026-04-27 01:43 | -14.15724 | -73.34704 | 34200 ft | 443 kts | 294° |
| 2026-04-27 01:43 | -14.13295 | -73.40493 | 34206 ft | 442 kts | 294° |
| 2026-04-27 01:44 | -14.10857 | -73.46300 | 34210 ft | 441 kts | 294° |
| 2026-04-27 01:44 | -14.08422 | -73.52096 | 34212 ft | 440 kts | 294° |
| 2026-04-27 01:45 | -14.05987 | -73.57882 | 34197 ft | 440 kts | 294° |
| 2026-04-27 01:45 | -14.03553 | -73.63664 | 34194 ft | 440 kts | 294° |
| 2026-04-27 01:46 | -14.01111 | -73.69460 | 34199 ft | 440 kts | 294° |
| 2026-04-27 01:46 | -13.98676 | -73.75238 | 34197 ft | 441 kts | 294° |
| 2026-04-27 01:47 | -13.96232 | -73.81033 | 34199 ft | 441 kts | 294° |
| 2026-04-27 01:47 | -13.93801 | -73.86790 | 34189 ft | 441 kts | 294° |
| 2026-04-27 01:48 | -13.91353 | -73.92586 | 34185 ft | 441 kts | 294° |
| 2026-04-27 01:48 | -13.88904 | -73.98378 | 34198 ft | 441 kts | 294° |
| 2026-04-27 01:49 | -13.86526 | -74.04001 | 34198 ft | 441 kts | 294° |
| 2026-04-27 01:49 | -13.84077 | -74.09783 | 34211 ft | 440 kts | 294° |
| 2026-04-27 01:50 | -13.81632 | -74.15554 | 34188 ft | 440 kts | 294° |
| 2026-04-27 01:50 | -13.79187 | -74.21320 | 34189 ft | 439 kts | 294° |
| 2026-04-27 01:51 | -13.76762 | -74.27035 | 34204 ft | 439 kts | 294° |
| 2026-04-27 01:51 | -13.74318 | -74.32794 | 34205 ft | 439 kts | 294° |
| 2026-04-27 01:52 | -13.71874 | -74.38543 | 34215 ft | 438 kts | 294° |
| 2026-04-27 01:52 | -13.69432 | -74.44280 | 34203 ft | 438 kts | 295° |
| 2026-04-27 01:53 | -13.66988 | -74.50018 | 34213 ft | 438 kts | 295° |
| 2026-04-27 01:53 | -13.64545 | -74.55753 | 34214 ft | 438 kts | 295° |
| 2026-04-27 01:54 | -13.62099 | -74.61489 | 34216 ft | 438 kts | 295° |
| 2026-04-27 01:54 | -13.59663 | -74.67199 | 34222 ft | 438 kts | 295° |
| 2026-04-27 01:55 | -13.57212 | -74.72940 | 34215 ft | 439 kts | 295° |
| 2026-04-27 01:55 | -13.54763 | -74.78673 | 34230 ft | 438 kts | 295° |
| 2026-04-27 01:56 | -13.51082 | -74.87281 | 34230 ft | 438 kts | 295° |
| 2026-04-27 01:56 | -13.48629 | -74.93014 | 34223 ft | 438 kts | 295° |
| 2026-04-27 01:57 | -13.46171 | -74.98749 | 34228 ft | 438 kts | 295° |
| 2026-04-27 01:57 | -13.43782 | -75.04316 | 34226 ft | 438 kts | 295° |
| 2026-04-27 01:58 | -13.41341 | -75.10005 | 34208 ft | 438 kts | 294° |
| 2026-04-27 01:58 | -13.38882 | -75.15731 | 34220 ft | 439 kts | 294° |
| 2026-04-27 01:59 | -13.36415 | -75.21473 | 34195 ft | 439 kts | 294° |
| 2026-04-27 01:59 | -13.33946 | -75.27215 | 34212 ft | 440 kts | 294° |
| 2026-04-27 02:00 | -13.31464 | -75.32982 | 34211 ft | 441 kts | 294° |
| 2026-04-27 02:00 | -13.28988 | -75.38733 | 34187 ft | 441 kts | 294° |
| 2026-04-27 02:01 | -13.26503 | -75.44500 | 34179 ft | 441 kts | 294° |
| 2026-04-27 02:01 | -13.24014 | -75.50272 | 34150 ft | 442 kts | 294° |
| 2026-04-27 02:02 | -13.21537 | -75.56013 | 34174 ft | 443 kts | 294° |
| 2026-04-27 02:02 | -13.19041 | -75.61796 | 34175 ft | 443 kts | 294° |
| 2026-04-27 02:03 | -13.16539 | -75.67585 | 34139 ft | 444 kts | 294° |
| 2026-04-27 02:03 | -13.14046 | -75.73343 | 34130 ft | 444 kts | 294° |
| 2026-04-27 02:04 | -13.11536 | -75.79138 | 34091 ft | 444 kts | 295° |
| 2026-04-27 02:04 | -13.10283 | -75.82031 | 33718 ft | 444 kts | 295° |
| 2026-04-27 02:04 | -13.09458 | -75.83935 | 33487 ft | 439 kts | 295° |
| 2026-04-27 02:05 | -13.08222 | -75.86788 | 33080 ft | 435 kts | 295° |
| 2026-04-27 02:05 | -13.06999 | -75.89611 | 32689 ft | 431 kts | 295° |
| 2026-04-27 02:05 | -13.05786 | -75.92408 | 32283 ft | 427 kts | 295° |
| 2026-04-27 02:05 | -13.04584 | -75.95178 | 31854 ft | 423 kts | 295° |
| 2026-04-27 02:06 | -13.03391 | -75.97926 | 31465 ft | 420 kts | 295° |
| 2026-04-27 02:06 | -13.02274 | -76.00500 | 31106 ft | 417 kts | 295° |
| 2026-04-27 02:06 | -13.01095 | -76.03215 | 30719 ft | 414 kts | 295° |
| 2026-04-27 02:06 | -12.99930 | -76.05896 | 30345 ft | 412 kts | 295° |
| 2026-04-27 02:07 | -12.98766 | -76.08574 | 29882 ft | 409 kts | 295° |
| 2026-04-27 02:07 | -12.97628 | -76.11193 | 29483 ft | 405 kts | 295° |
| 2026-04-27 02:07 | -12.96482 | -76.13829 | 29086 ft | 403 kts | 295° |
| 2026-04-27 02:07 | -12.95347 | -76.16437 | 28682 ft | 399 kts | 295° |
| 2026-04-27 02:08 | -12.94216 | -76.19035 | 28295 ft | 396 kts | 295° |
| 2026-04-27 02:08 | -12.93097 | -76.21606 | 27877 ft | 393 kts | 295° |
| 2026-04-27 02:08 | -12.91986 | -76.24158 | 27496 ft | 390 kts | 295° |
| 2026-04-27 02:08 | -12.90884 | -76.26688 | 27125 ft | 388 kts | 295° |
| 2026-04-27 02:09 | -12.89788 | -76.29203 | 26752 ft | 385 kts | 295° |
| 2026-04-27 02:09 | -12.88699 | -76.31701 | 26382 ft | 383 kts | 295° |
| 2026-04-27 02:09 | -12.87613 | -76.34193 | 26016 ft | 381 kts | 295° |
| 2026-04-27 02:09 | -12.86533 | -76.36670 | 25634 ft | 379 kts | 294° |
| 2026-04-27 02:10 | -12.85457 | -76.39138 | 25250 ft | 378 kts | 294° |
| 2026-04-27 02:10 | -12.84385 | -76.41595 | 24905 ft | 377 kts | 294° |
| 2026-04-27 02:10 | -12.83314 | -76.44048 | 24524 ft | 377 kts | 294° |
| 2026-04-27 02:10 | -12.82243 | -76.46501 | 24160 ft | 376 kts | 294° |
| 2026-04-27 02:11 | -12.81175 | -76.48946 | 23782 ft | 375 kts | 294° |
| 2026-04-27 02:11 | -12.80123 | -76.51356 | 23360 ft | 375 kts | 294° |
| 2026-04-27 02:11 | -12.79060 | -76.53789 | 22965 ft | 373 kts | 294° |
| 2026-04-27 02:11 | -12.78001 | -76.56215 | 22584 ft | 371 kts | 294° |
| 2026-04-27 02:12 | -12.76949 | -76.58621 | 22218 ft | 369 kts | 294° |
| 2026-04-27 02:12 | -12.75897 | -76.61007 | 21856 ft | 366 kts | 295° |
| 2026-04-27 02:12 | -12.74742 | -76.63329 | 21496 ft | 364 kts | 298° |
| 2026-04-27 02:12 | -12.73528 | -76.65596 | 21135 ft | 362 kts | 299° |
| 2026-04-27 02:13 | -12.72306 | -76.67842 | 20785 ft | 360 kts | 299° |
| 2026-04-27 02:13 | -12.71091 | -76.70081 | 20438 ft | 358 kts | 299° |
| 2026-04-27 02:13 | -12.69893 | -76.72305 | 20097 ft | 356 kts | 299° |
| 2026-04-27 02:13 | -12.68702 | -76.74531 | 19740 ft | 355 kts | 299° |
| 2026-04-27 02:14 | -12.67521 | -76.76746 | 19375 ft | 354 kts | 299° |
| 2026-04-27 02:14 | -12.66348 | -76.78952 | 19027 ft | 353 kts | 299° |
| 2026-04-27 02:14 | -12.65192 | -76.81128 | 18663 ft | 352 kts | 299° |
| 2026-04-27 02:14 | -12.64010 | -76.83353 | 18298 ft | 351 kts | 299° |
| 2026-04-27 02:15 | -12.62861 | -76.85515 | 17922 ft | 349 kts | 299° |
| 2026-04-27 02:15 | -12.61705 | -76.87691 | 17557 ft | 347 kts | 300° |
| 2026-04-27 02:15 | -12.60555 | -76.89855 | 17200 ft | 345 kts | 300° |
| 2026-04-27 02:15 | -12.59412 | -76.92004 | 16856 ft | 342 kts | 300° |
| 2026-04-27 02:16 | -12.58240 | -76.94114 | 16498 ft | 339 kts | 307° |
| 2026-04-27 02:16 | -12.56558 | -76.95771 | 16151 ft | 334 kts | 329° |
| 2026-04-27 02:16 | -12.54526 | -76.96885 | 15840 ft | 330 kts | 335° |
| 2026-04-27 02:16 | -12.52458 | -76.97903 | 15502 ft | 329 kts | 335° |
| 2026-04-27 02:17 | -12.50395 | -76.98899 | 15166 ft | 328 kts | 335° |
| 2026-04-27 02:17 | -12.48335 | -76.99895 | 14824 ft | 327 kts | 335° |
| 2026-04-27 02:17 | -12.46376 | -77.00850 | 14497 ft | 326 kts | 335° |
| 2026-04-27 02:17 | -12.44333 | -77.01853 | 14155 ft | 325 kts | 334° |
| 2026-04-27 02:18 | -12.42292 | -77.02860 | 13813 ft | 325 kts | 334° |
| 2026-04-27 02:18 | -12.40257 | -77.03867 | 13433 ft | 324 kts | 334° |
| 2026-04-27 02:18 | -12.38230 | -77.04872 | 13085 ft | 323 kts | 334° |
| 2026-04-27 02:18 | -12.36238 | -77.05861 | 12762 ft | 321 kts | 334° |
| 2026-04-27 02:19 | -12.34234 | -77.06856 | 12425 ft | 320 kts | 334° |
| 2026-04-27 02:19 | -12.32238 | -77.07848 | 12104 ft | 318 kts | 334° |
| 2026-04-27 02:19 | -12.30252 | -77.08834 | 11760 ft | 316 kts | 334° |
| 2026-04-27 02:19 | -12.28277 | -77.09815 | 11433 ft | 315 kts | 334° |
| 2026-04-27 02:20 | -12.26309 | -77.10792 | 11107 ft | 314 kts | 334° |
| 2026-04-27 02:20 | -12.24345 | -77.11767 | 10767 ft | 313 kts | 334° |
| 2026-04-27 02:20 | -12.22384 | -77.12740 | 10439 ft | 313 kts | 334° |
| 2026-04-27 02:20 | -12.20436 | -77.13707 | 10208 ft | 308 kts | 334° |
| 2026-04-27 02:21 | -12.18530 | -77.14654 | 10046 ft | 301 kts | 334° |
| 2026-04-27 02:21 | -12.16658 | -77.15582 | 9782 ft | 298 kts | 334° |
| 2026-04-27 02:21 | -12.14796 | -77.16507 | 9473 ft | 297 kts | 334° |
| 2026-04-27 02:21 | -12.12940 | -77.17427 | 9176 ft | 295 kts | 334° |
| 2026-04-27 02:22 | -12.11117 | -77.18331 | 9052 ft | 287 kts | 334° |
| 2026-04-27 02:22 | -12.09343 | -77.19210 | 8864 ft | 281 kts | 334° |
| 2026-04-27 02:22 | -12.07584 | -77.20083 | 8564 ft | 281 kts | 334° |
| 2026-04-27 02:22 | -12.05830 | -77.20952 | 8292 ft | 279 kts | 334° |
| 2026-04-27 02:23 | -12.04086 | -77.21817 | 8018 ft | 278 kts | 334° |
| 2026-04-27 02:23 | -12.02348 | -77.22678 | 7740 ft | 277 kts | 334° |
| 2026-04-27 02:23 | -12.00622 | -77.23549 | 7460 ft | 276 kts | 333° |
| 2026-04-27 02:23 | -11.98923 | -77.24436 | 7189 ft | 275 kts | 333° |
| 2026-04-27 02:24 | -11.97245 | -77.25316 | 6917 ft | 274 kts | 333° |
| 2026-04-27 02:24 | -11.95550 | -77.26203 | 6641 ft | 273 kts | 333° |
| 2026-04-27 02:24 | -11.93858 | -77.27085 | 6355 ft | 273 kts | 333° |
| 2026-04-27 02:24 | -11.92166 | -77.27964 | 6052 ft | 272 kts | 333° |
| 2026-04-27 02:25 | -11.90463 | -77.28810 | 5738 ft | 270 kts | 334° |
| 2026-04-27 02:25 | -11.88793 | -77.29628 | 5454 ft | 262 kts | 334° |
| 2026-04-27 02:25 | -11.87171 | -77.30417 | 5192 ft | 256 kts | 336° |
| 2026-04-27 02:25 | -11.85445 | -77.30735 | 4926 ft | 255 kts | 7° |
| 2026-04-27 02:26 | -11.83819 | -77.30090 | 4734 ft | 251 kts | 37° |
| 2026-04-27 02:26 | -11.82678 | -77.28802 | 4618 ft | 243 kts | 59° |
| 2026-04-27 02:26 | -11.81906 | -77.27299 | 4504 ft | 235 kts | 64° |
| 2026-04-27 02:26 | -11.81208 | -77.25792 | 4259 ft | 234 kts | 67° |
| 2026-04-27 02:27 | -11.80942 | -77.24198 | 4022 ft | 232 kts | 99° |
| 2026-04-27 02:27 | -11.81545 | -77.22699 | 3806 ft | 229 kts | 128° |
| 2026-04-27 02:27 | -11.82706 | -77.21626 | 3607 ft | 223 kts | 145° |
| 2026-04-27 02:27 | -11.83971 | -77.20740 | 3352 ft | 219 kts | 146° |
| 2026-04-27 02:28 | -11.85226 | -77.19902 | 3116 ft | 212 kts | 150° |
| 2026-04-27 02:28 | -11.86517 | -77.19213 | 2867 ft | 206 kts | 154° |
| 2026-04-27 02:28 | -11.87791 | -77.18583 | 2631 ft | 201 kts | 154° |
| 2026-04-27 02:28 | -11.89036 | -77.17968 | 2408 ft | 196 kts | 154° |
| 2026-04-27 02:29 | -11.90223 | -77.17380 | 2290 ft | 186 kts | 154° |
| 2026-04-27 02:29 | -11.91375 | -77.16807 | 2072 ft | 182 kts | 154° |
| 2026-04-27 02:29 | -11.92496 | -77.16251 | 1858 ft | 177 kts | 154° |
| 2026-04-27 02:29 | -11.93584 | -77.15711 | 1624 ft | 170 kts | 155° |
| 2026-04-27 02:30 | -11.94607 | -77.15203 | 1426 ft | 155 kts | 155° |
| 2026-04-27 02:30 | -11.95527 | -77.14746 | 1222 ft | 141 kts | 155° |
| 2026-04-27 02:30 | -11.96397 | -77.14314 | 1018 ft | 138 kts | 155° |
| 2026-04-27 02:30 | -11.97271 | -77.13880 | 829 ft | 140 kts | 155° |
| 2026-04-27 02:31 | -11.98147 | -77.13445 | 645 ft | 140 kts | 155° |
| 2026-04-27 02:31 | -11.99013 | -77.13015 | 456 ft | 138 kts | 154° |
| 2026-04-27 02:31 | -11.99863 | -77.12592 | 288 ft | 135 kts | 154° |
| 2026-04-27 02:31 | -12.00687 | -77.12164 | 115 ft | 134 kts | 155° |
| 2026-04-27 02:32 | -12.01495 | -77.11770 | 49 ft | 113 kts | 155° |
| 2026-04-27 02:32 | -12.02069 | -77.11484 | 62 ft | 70 kts | 154° |
| 2026-04-27 02:32 | -12.02402 | -77.11321 | 67 ft | 38 kts | 154° |
| 2026-04-27 02:32 | -12.02474 | -77.11200 | 75 ft | 19 kts | 63° |
| 2026-04-27 02:33 | -12.02469 | -77.11189 | 69 ft | 0 kts | 63° |
| 2026-04-27 02:33 | -12.02467 | -77.11186 | 70 ft | 1 kts | 63° |
| 2026-04-27 02:33 | -12.02458 | -77.11168 | 68 ft | 7 kts | 63° |
| 2026-04-27 02:33 | -12.02424 | -77.11085 | 69 ft | 17 kts | 69° |
| 2026-04-27 02:34 | -12.02375 | -77.10976 | 70 ft | 16 kts | 63° |
| 2026-04-27 02:34 | -12.02359 | -77.10944 | 68 ft | 0 kts | 64° |